Aviation Digital Data Service (ADDS)

Output produced by METARs form (1822 UTC 19 April 2019)
found at http://www.aviationweather.gov/metar/data/
 
METAR text: SYCJ 191800Z 07014KT 9999 BKN024 32/22 Q1012 NOSIG
Conditions at: SYCJ (GEORGETOWN/TIMEH, GY) observed 1800 UTC 19 April 2019
Temperature: 32.0°C (90°F)
Dewpoint: 22.0°C (72°F) [RH = 56%]
Pressure (altimeter): 29.88 inches Hg (1012.0 mb)
Winds: from the ENE (70 degrees) at 16 MPH (14 knots; 7.2 m/s)
Visibility: 6 or more miles (10+ km)
Ceiling: 2400 feet AGL
Clouds: broken clouds at 2400 feet AGL
Weather: no significant weather observed at this time

METAR text: SYCJ 191700Z 06014KT 9999 BKN024 33/22 Q1012 NOSIG
Conditions at: SYCJ (GEORGETOWN/TIMEH, GY) observed 1700 UTC 19 April 2019
Temperature: 33.0°C (91°F)
Dewpoint: 22.0°C (72°F) [RH = 53%]
Pressure (altimeter): 29.88 inches Hg (1012.0 mb)
Winds: from the ENE (60 degrees) at 16 MPH (14 knots; 7.2 m/s)
Visibility: 6 or more miles (10+ km)
Ceiling: 2400 feet AGL
Clouds: broken clouds at 2400 feet AGL
Weather: no significant weather observed at this time

METAR text: SYCJ 191600Z 05014KT 9999 BKN024 32/23 Q1013 NOSIG
Conditions at: SYCJ (GEORGETOWN/TIMEH, GY) observed 1600 UTC 19 April 2019
Temperature: 32.0°C (90°F)
Dewpoint: 23.0°C (73°F) [RH = 59%]
Pressure (altimeter): 29.91 inches Hg (1013.0 mb)
Winds: from the NE (50 degrees) at 16 MPH (14 knots; 7.2 m/s)
Visibility: 6 or more miles (10+ km)
Ceiling: 2400 feet AGL
Clouds: broken clouds at 2400 feet AGL
Weather: no significant weather observed at this time

METAR text: SYCJ 191500Z 07014KT 9999 SCT022 BKN100 31/23 Q1014 NOSIG
Conditions at: SYCJ (GEORGETOWN/TIMEH, GY) observed 1500 UTC 19 April 2019
Temperature: 31.0°C (88°F)
Dewpoint: 23.0°C (73°F) [RH = 63%]
Pressure (altimeter): 29.94 inches Hg (1014.0 mb)
Winds: from the ENE (70 degrees) at 16 MPH (14 knots; 7.2 m/s)
Visibility: 6 or more miles (10+ km)
Ceiling: 10000 feet AGL
Clouds: scattered clouds at 2200 feet AGL
broken clouds at 10000 feet AGL
Weather: no significant weather observed at this time

METAR text: SYCJ 191400Z 07012KT 9999 SCT020 BKN100 31/24 Q1014 NOSIG
Conditions at: SYCJ (GEORGETOWN/TIMEH, GY) observed 1400 UTC 19 April 2019
Temperature: 31.0°C (88°F)
Dewpoint: 24.0°C (75°F) [RH = 66%]
Pressure (altimeter): 29.94 inches Hg (1014.0 mb)
Winds: from the ENE (70 degrees) at 14 MPH (12 knots; 6.2 m/s)
Visibility: 6 or more miles (10+ km)
Ceiling: 10000 feet AGL
Clouds: scattered clouds at 2000 feet AGL
broken clouds at 10000 feet AGL
Weather: no significant weather observed at this time

METAR text: SYCJ 191300Z 07008KT 9999 SCT019 BKN100 28/25 Q1014 NOSIG
Conditions at: SYCJ (GEORGETOWN/TIMEH, GY) observed 1300 UTC 19 April 2019
Temperature: 28.0°C (82°F)
Dewpoint: 25.0°C (77°F) [RH = 84%]
Pressure (altimeter): 29.94 inches Hg (1014.0 mb)
Winds: from the ENE (70 degrees) at 9 MPH (8 knots; 4.1 m/s)
Visibility: 6 or more miles (10+ km)
Ceiling: 10000 feet AGL
Clouds: scattered clouds at 1900 feet AGL
broken clouds at 10000 feet AGL
Weather: no significant weather observed at this time

METAR text: SYCJ 191200Z 07004KT 9999 SCT019 SCT039 BKN100 26/24 Q1014 NOSIG
Conditions at: SYCJ (GEORGETOWN/TIMEH, GY) observed 1200 UTC 19 April 2019
Temperature: 26.0°C (79°F)
Dewpoint: 24.0°C (75°F) [RH = 89%]
Pressure (altimeter): 29.94 inches Hg (1014.0 mb)
Winds: from the ENE (70 degrees) at 5 MPH (4 knots; 2.1 m/s)
Visibility: 6 or more miles (10+ km)
Ceiling: 10000 feet AGL
Clouds: scattered clouds at 1900 feet AGL
scattered clouds at 3900 feet AGL
broken clouds at 10000 feet AGL
Weather: no significant weather observed at this time

METAR text: SYCJ 191100Z 11004KT 9999 SCT018 SCT038 BKN080 25/24 Q1013 NOSIG
Conditions at: SYCJ (GEORGETOWN/TIMEH, GY) observed 1100 UTC 19 April 2019
Temperature: 25.0°C (77°F)
Dewpoint: 24.0°C (75°F) [RH = 94%]
Pressure (altimeter): 29.91 inches Hg (1013.0 mb)
Winds: from the ESE (110 degrees) at 5 MPH (4 knots; 2.1 m/s)
Visibility: 6 or more miles (10+ km)
Ceiling: 8000 feet AGL
Clouds: scattered clouds at 1800 feet AGL
scattered clouds at 3800 feet AGL
broken clouds at 8000 feet AGL
Weather: no significant weather observed at this time

METAR text: SYCJ 191000Z 08006KT 9999 SCT018 SCT038 BKN080 24/23 Q1013 NOSIG
Conditions at: SYCJ (GEORGETOWN/TIMEH, GY) observed 1000 UTC 19 April 2019
Temperature: 24.0°C (75°F)
Dewpoint: 23.0°C (73°F) [RH = 94%]
Pressure (altimeter): 29.91 inches Hg (1013.0 mb)
Winds: from the E (80 degrees) at 7 MPH (6 knots; 3.1 m/s)
Visibility: 6 or more miles (10+ km)
Ceiling: 8000 feet AGL
Clouds: scattered clouds at 1800 feet AGL
scattered clouds at 3800 feet AGL
broken clouds at 8000 feet AGL
Weather: no significant weather observed at this time

METAR text: SYCJ 190900Z 10004KT 9999 BKN017 SCT038 BKN080 24/23 Q1012 NOSIG
Conditions at: SYCJ (GEORGETOWN/TIMEH, GY) observed 0900 UTC 19 April 2019
Temperature: 24.0°C (75°F)
Dewpoint: 23.0°C (73°F) [RH = 94%]
Pressure (altimeter): 29.88 inches Hg (1012.0 mb)
Winds: from the E (100 degrees) at 5 MPH (4 knots; 2.1 m/s)
Visibility: 6 or more miles (10+ km)
Ceiling: 1700 feet AGL
Clouds: broken clouds at 1700 feet AGL
scattered clouds at 3800 feet AGL
broken clouds at 8000 feet AGL
Weather: no significant weather observed at this time

METAR text: SYCJ 190800Z 10004T 9999 BKN017 SCT038 BKN080 24/23 Q1011 NOSIG
Conditions at: SYCJ (GEORGETOWN/TIMEH, GY) observed 0800 UTC 19 April 2019
Temperature: 24.0°C (75°F)
Dewpoint: 23.0°C (73°F) [RH = 94%]
Pressure (altimeter): 29.85 inches Hg (1011.0 mb)
Winds: missing
Visibility: 6 or more miles (10+ km)
Ceiling: 1700 feet AGL
Clouds: broken clouds at 1700 feet AGL
scattered clouds at 3800 feet AGL
broken clouds at 8000 feet AGL
Weather: no significant weather observed at this time

METAR text: SYCJ 190700Z 07004KT 9999 BKN017 SCT038 BKN080 24/24 Q1011 NOSIG
Conditions at: SYCJ (GEORGETOWN/TIMEH, GY) observed 0700 UTC 19 April 2019
Temperature: 24.0°C (75°F)
Dewpoint: 24.0°C (75°F) [RH = 100%]
Pressure (altimeter): 29.85 inches Hg (1011.0 mb)
Winds: from the ENE (70 degrees) at 5 MPH (4 knots; 2.1 m/s)
Visibility: 6 or more miles (10+ km)
Ceiling: 1700 feet AGL
Clouds: broken clouds at 1700 feet AGL
scattered clouds at 3800 feet AGL
broken clouds at 8000 feet AGL
Weather: no significant weather observed at this time

METAR text: SYCJ 190600Z 01004KT 9999 BKN017 SCT039 BKN080 25/24 Q1011 NOSIG
Conditions at: SYCJ (GEORGETOWN/TIMEH, GY) observed 0600 UTC 19 April 2019
Temperature: 25.0°C (77°F)
Dewpoint: 24.0°C (75°F) [RH = 94%]
Pressure (altimeter): 29.85 inches Hg (1011.0 mb)
Winds: from the N (10 degrees) at 5 MPH (4 knots; 2.1 m/s)
Visibility: 6 or more miles (10+ km)
Ceiling: 1700 feet AGL
Clouds: broken clouds at 1700 feet AGL
scattered clouds at 3900 feet AGL
broken clouds at 8000 feet AGL
Weather: no significant weather observed at this time

METAR text: SYCJ 190500Z 06004KT 9999 BKN017 SCT039 BKN080 24/24 Q1012 NOSIG
Conditions at: SYCJ (GEORGETOWN/TIMEH, GY) observed 0500 UTC 19 April 2019
Temperature: 24.0°C (75°F)
Dewpoint: 24.0°C (75°F) [RH = 100%]
Pressure (altimeter): 29.88 inches Hg (1012.0 mb)
Winds: from the ENE (60 degrees) at 5 MPH (4 knots; 2.1 m/s)
Visibility: 6 or more miles (10+ km)
Ceiling: 1700 feet AGL
Clouds: broken clouds at 1700 feet AGL
scattered clouds at 3900 feet AGL
broken clouds at 8000 feet AGL
Weather: no significant weather observed at this time

METAR text: SYCJ 190400Z 04004KT 9999 FEW018 25/24 Q1013 NOSIG
Conditions at: SYCJ (GEORGETOWN/TIMEH, GY) observed 0400 UTC 19 April 2019
Temperature: 25.0°C (77°F)
Dewpoint: 24.0°C (75°F) [RH = 94%]
Pressure (altimeter): 29.91 inches Hg (1013.0 mb)
Winds: from the NE (40 degrees) at 5 MPH (4 knots; 2.1 m/s)
Visibility: 6 or more miles (10+ km)
Ceiling: at least 12,000 feet AGL
Clouds: few clouds at 1800 feet AGL
Weather: no significant weather observed at this time

METAR text: SYCJ 190300Z 05004KT 9999 SCT018 SCT039 BKN090 25/24 Q1013 NOSIG
Conditions at: SYCJ (GEORGETOWN/TIMEH, GY) observed 0300 UTC 19 April 2019
Temperature: 25.0°C (77°F)
Dewpoint: 24.0°C (75°F) [RH = 94%]
Pressure (altimeter): 29.91 inches Hg (1013.0 mb)
Winds: from the NE (50 degrees) at 5 MPH (4 knots; 2.1 m/s)
Visibility: 6 or more miles (10+ km)
Ceiling: 9000 feet AGL
Clouds: scattered clouds at 1800 feet AGL
scattered clouds at 3900 feet AGL
broken clouds at 9000 feet AGL
Weather: no significant weather observed at this time

METAR text: SYCJ 190200Z 06004KT 9999 BKN018 SCT039 BKN080 26/24 Q1013 NOSIG
Conditions at: SYCJ (GEORGETOWN/TIMEH, GY) observed 0200 UTC 19 April 2019
Temperature: 26.0°C (79°F)
Dewpoint: 24.0°C (75°F) [RH = 89%]
Pressure (altimeter): 29.91 inches Hg (1013.0 mb)
Winds: from the ENE (60 degrees) at 5 MPH (4 knots; 2.1 m/s)
Visibility: 6 or more miles (10+ km)
Ceiling: 1800 feet AGL
Clouds: broken clouds at 1800 feet AGL
scattered clouds at 3900 feet AGL
broken clouds at 8000 feet AGL
Weather: no significant weather observed at this time

METAR text: SYCJ 190100Z 04006KT 9999 BKN018 SCT039 BKN080 26/24 Q1012 NOSIG
Conditions at: SYCJ (GEORGETOWN/TIMEH, GY) observed 0100 UTC 19 April 2019
Temperature: 26.0°C (79°F)
Dewpoint: 24.0°C (75°F) [RH = 89%]
Pressure (altimeter): 29.88 inches Hg (1012.0 mb)
Winds: from the NE (40 degrees) at 7 MPH (6 knots; 3.1 m/s)
Visibility: 6 or more miles (10+ km)
Ceiling: 1800 feet AGL
Clouds: broken clouds at 1800 feet AGL
scattered clouds at 3900 feet AGL
broken clouds at 8000 feet AGL
Weather: no significant weather observed at this time

METAR text: SYCJ 190000Z 05004KT 9999 BKN018 SCT039 BKN080 26/24 Q1012 NOSIG
Conditions at: SYCJ (GEORGETOWN/TIMEH, GY) observed 0000 UTC 19 April 2019
Temperature: 26.0°C (79°F)
Dewpoint: 24.0°C (75°F) [RH = 89%]
Pressure (altimeter): 29.88 inches Hg (1012.0 mb)
Winds: from the NE (50 degrees) at 5 MPH (4 knots; 2.1 m/s)
Visibility: 6 or more miles (10+ km)
Ceiling: 1800 feet AGL
Clouds: broken clouds at 1800 feet AGL
scattered clouds at 3900 feet AGL
broken clouds at 8000 feet AGL
Weather: no significant weather observed at this time

METAR text: SYCJ 182300Z 07006KT 9999 BKN016 SCT037 BKN070 26/24 Q1011 NOSIG
Conditions at: SYCJ (GEORGETOWN/TIMEH, GY) observed 2300 UTC 18 April 2019
Temperature: 26.0°C (79°F)
Dewpoint: 24.0°C (75°F) [RH = 89%]
Pressure (altimeter): 29.85 inches Hg (1011.0 mb)
Winds: from the ENE (70 degrees) at 7 MPH (6 knots; 3.1 m/s)
Visibility: 6 or more miles (10+ km)
Ceiling: 1600 feet AGL
Clouds: broken clouds at 1600 feet AGL
scattered clouds at 3700 feet AGL
broken clouds at 7000 feet AGL
Weather: no significant weather observed at this time

METAR text: SYCJ 182200Z 06008KT 9000 -RA SCT016 SCT037 BKN070 26/24 Q1010 RESHRA NOSIG
Conditions at: SYCJ (GEORGETOWN/TIMEH, GY) observed 2200 UTC 18 April 2019
Temperature: 26.0°C (79°F)
Dewpoint: 24.0°C (75°F) [RH = 89%]
Pressure (altimeter): 29.82 inches Hg (1010.0 mb)
Winds: from the ENE (60 degrees) at 9 MPH (8 knots; 4.1 m/s)
Visibility: 6 miles ( 9 km)
Ceiling: 7000 feet AGL
Clouds: scattered clouds at 1600 feet AGL
scattered clouds at 3700 feet AGL
broken clouds at 7000 feet AGL
Weather: -RA  (light rain)

METAR text: SYCJ 182100Z 06012KT 9000 -SHRA SCT017 SCT037 BKN080 27/24 Q1009 NOSIG
Conditions at: SYCJ (GEORGETOWN/TIMEH, GY) observed 2100 UTC 18 April 2019
Temperature: 27.0°C (81°F)
Dewpoint: 24.0°C (75°F) [RH = 84%]
Pressure (altimeter): 29.79 inches Hg (1009.0 mb)
Winds: from the ENE (60 degrees) at 14 MPH (12 knots; 6.2 m/s)
Visibility: 6 miles ( 9 km)
Ceiling: 8000 feet AGL
Clouds: scattered clouds at 1700 feet AGL
scattered clouds at 3700 feet AGL
broken clouds at 8000 feet AGL
Weather: -SHRA  (light rain showers)

METAR text: SYCJ 182000Z 07014KT 9000 VCSH SCT018 SCT039 BKN090 29/23 Q1009 VCSH-SW NOSIG
Conditions at: SYCJ (GEORGETOWN/TIMEH, GY) observed 2000 UTC 18 April 2019
Temperature: 29.0°C (84°F)
Dewpoint: 23.0°C (73°F) [RH = 70%]
Pressure (altimeter): 29.79 inches Hg (1009.0 mb)
Winds: from the ENE (70 degrees) at 16 MPH (14 knots; 7.2 m/s)
Visibility: 6 miles ( 9 km)
Ceiling: 9000 feet AGL
Clouds: scattered clouds at 1800 feet AGL
scattered clouds at 3900 feet AGL
broken clouds at 9000 feet AGL
Weather: VCSH VCSH  (showers in vicinity, showers in vicinity)

METAR text: SYCJ 181900Z 07014KT 9999 VCSH BKN019 SCT090 31/23 Q1009 VCSH-E-S NOSIG
Conditions at: SYCJ (GEORGETOWN/TIMEH, GY) observed 1900 UTC 18 April 2019
Temperature: 31.0°C (88°F)
Dewpoint: 23.0°C (73°F) [RH = 63%]
Pressure (altimeter): 29.79 inches Hg (1009.0 mb)
Winds: from the ENE (70 degrees) at 16 MPH (14 knots; 7.2 m/s)
Visibility: 6 or more miles (10+ km)
Ceiling: 1900 feet AGL
Clouds: broken clouds at 1900 feet AGL
scattered clouds at 9000 feet AGL
Weather: VCSH VCSH  (showers in vicinity, showers in vicinity)

METAR text: SYCJ 181800Z 07014KT 040V110 9999 BKN019 SCT100 31/23 Q1010 NOSIG
Conditions at: SYCJ (GEORGETOWN/TIMEH, GY) observed 1800 UTC 18 April 2019
Temperature: 31.0°C (88°F)
Dewpoint: 23.0°C (73°F) [RH = 63%]
Pressure (altimeter): 29.82 inches Hg (1010.0 mb)
Winds: from the ENE (70 degrees) at 16 MPH (14 knots; 7.2 m/s)
Visibility: 6 or more miles (10+ km)
Ceiling: 1900 feet AGL
Clouds: broken clouds at 1900 feet AGL
scattered clouds at 10000 feet AGL
Weather: no significant weather observed at this time

METAR text: SYCJ 181700Z 06014KT 9999 BKN022 SCT100 31/23 Q1010 NOSIG
Conditions at: SYCJ (GEORGETOWN/TIMEH, GY) observed 1700 UTC 18 April 2019
Temperature: 31.0°C (88°F)
Dewpoint: 23.0°C (73°F) [RH = 63%]
Pressure (altimeter): 29.82 inches Hg (1010.0 mb)
Winds: from the ENE (60 degrees) at 16 MPH (14 knots; 7.2 m/s)
Visibility: 6 or more miles (10+ km)
Ceiling: 2200 feet AGL
Clouds: broken clouds at 2200 feet AGL
scattered clouds at 10000 feet AGL
Weather: no significant weather observed at this time

METAR text: SYCJ 181600Z 07014KT 9999 BKN020 BKN100 31/23 Q1012 NOSIG
Conditions at: SYCJ (GEORGETOWN/TIMEH, GY) observed 1600 UTC 18 April 2019
Temperature: 31.0°C (88°F)
Dewpoint: 23.0°C (73°F) [RH = 63%]
Pressure (altimeter): 29.88 inches Hg (1012.0 mb)
Winds: from the ENE (70 degrees) at 16 MPH (14 knots; 7.2 m/s)
Visibility: 6 or more miles (10+ km)
Ceiling: 2000 feet AGL
Clouds: broken clouds at 2000 feet AGL
broken clouds at 10000 feet AGL
Weather: no significant weather observed at this time

METAR text: SYCJ 181500Z 05014KT 9999 BKN020 SCT100 31/24 Q1013 NOSIG
Conditions at: SYCJ (GEORGETOWN/TIMEH, GY) observed 1500 UTC 18 April 2019
Temperature: 31.0°C (88°F)
Dewpoint: 24.0°C (75°F) [RH = 66%]
Pressure (altimeter): 29.91 inches Hg (1013.0 mb)
Winds: from the NE (50 degrees) at 16 MPH (14 knots; 7.2 m/s)
Visibility: 6 or more miles (10+ km)
Ceiling: 2000 feet AGL
Clouds: broken clouds at 2000 feet AGL
scattered clouds at 10000 feet AGL
Weather: no significant weather observed at this time

METAR text: SYCJ 181400Z 10010KT 9999 SCT018 BKN100 29/24 Q1013 NOSIG
Conditions at: SYCJ (GEORGETOWN/TIMEH, GY) observed 1400 UTC 18 April 2019
Temperature: 29.0°C (84°F)
Dewpoint: 24.0°C (75°F) [RH = 74%]
Pressure (altimeter): 29.91 inches Hg (1013.0 mb)
Winds: from the E (100 degrees) at 12 MPH (10 knots; 5.1 m/s)
Visibility: 6 or more miles (10+ km)
Ceiling: 10000 feet AGL
Clouds: scattered clouds at 1800 feet AGL
broken clouds at 10000 feet AGL
Weather: no significant weather observed at this time

METAR text: SYCJ 181300Z 08008KT 9999 FEW017 SCT036 BKN090 29/24 Q1013 NOSIG
Conditions at: SYCJ (GEORGETOWN/TIMEH, GY) observed 1300 UTC 18 April 2019
Temperature: 29.0°C (84°F)
Dewpoint: 24.0°C (75°F) [RH = 74%]
Pressure (altimeter): 29.91 inches Hg (1013.0 mb)
Winds: from the E (80 degrees) at 9 MPH (8 knots; 4.1 m/s)
Visibility: 6 or more miles (10+ km)
Ceiling: 9000 feet AGL
Clouds: few clouds at 1700 feet AGL
scattered clouds at 3600 feet AGL
broken clouds at 9000 feet AGL
Weather: no significant weather observed at this time

METAR text: SYCJ 181200Z 09004KT 9999 FEW017 SCT034 BKN090 27/24 Q1013 NOSIG
Conditions at: SYCJ (GEORGETOWN/TIMEH, GY) observed 1200 UTC 18 April 2019
Temperature: 27.0°C (81°F)
Dewpoint: 24.0°C (75°F) [RH = 84%]
Pressure (altimeter): 29.91 inches Hg (1013.0 mb)
Winds: from the E (90 degrees) at 5 MPH (4 knots; 2.1 m/s)
Visibility: 6 or more miles (10+ km)
Ceiling: 9000 feet AGL
Clouds: few clouds at 1700 feet AGL
scattered clouds at 3400 feet AGL
broken clouds at 9000 feet AGL
Weather: no significant weather observed at this time

METAR text: SYCJ 181100Z 14004KT 9999 FEW016 BKN090 24/24 Q1012 NOSIG
Conditions at: SYCJ (GEORGETOWN/TIMEH, GY) observed 1100 UTC 18 April 2019
Temperature: 24.0°C (75°F)
Dewpoint: 24.0°C (75°F) [RH = 100%]
Pressure (altimeter): 29.88 inches Hg (1012.0 mb)
Winds: from the SE (140 degrees) at 5 MPH (4 knots; 2.1 m/s)
Visibility: 6 or more miles (10+ km)
Ceiling: 9000 feet AGL
Clouds: few clouds at 1600 feet AGL
broken clouds at 9000 feet AGL
Weather: no significant weather observed at this time

METAR text: SYCJ 181000Z 13006KT 9000 VCSH FEW012 SCT034 BKN090 24/23 Q1011 VCSH-NE NOSIG
Conditions at: SYCJ (GEORGETOWN/TIMEH, GY) observed 1000 UTC 18 April 2019
Temperature: 24.0°C (75°F)
Dewpoint: 23.0°C (73°F) [RH = 94%]
Pressure (altimeter): 29.85 inches Hg (1011.0 mb)
Winds: from the SE (130 degrees) at 7 MPH (6 knots; 3.1 m/s)
Visibility: 6 miles ( 9 km)
Ceiling: 9000 feet AGL
Clouds: few clouds at 1200 feet AGL
scattered clouds at 3400 feet AGL
broken clouds at 9000 feet AGL
Weather: VCSH VCSH  (showers in vicinity, showers in vicinity)

METAR text: SYCJ 180900Z 08004KT 9999 FEW012 BKN090 24/23 Q1010 NOSIG
Conditions at: SYCJ (GEORGETOWN/TIMEH, GY) observed 0900 UTC 18 April 2019
Temperature: 24.0°C (75°F)
Dewpoint: 23.0°C (73°F) [RH = 94%]
Pressure (altimeter): 29.82 inches Hg (1010.0 mb)
Winds: from the E (80 degrees) at 5 MPH (4 knots; 2.1 m/s)
Visibility: 6 or more miles (10+ km)
Ceiling: 9000 feet AGL
Clouds: few clouds at 1200 feet AGL
broken clouds at 9000 feet AGL
Weather: no significant weather observed at this time

METAR text: SYCJ 180800Z 08004KT 9999 FEW012 BKN090 24/23 Q1010 NOSIG
Conditions at: SYCJ (GEORGETOWN/TIMEH, GY) observed 0800 UTC 18 April 2019
Temperature: 24.0°C (75°F)
Dewpoint: 23.0°C (73°F) [RH = 94%]
Pressure (altimeter): 29.82 inches Hg (1010.0 mb)
Winds: from the E (80 degrees) at 5 MPH (4 knots; 2.1 m/s)
Visibility: 6 or more miles (10+ km)
Ceiling: 9000 feet AGL
Clouds: few clouds at 1200 feet AGL
broken clouds at 9000 feet AGL
Weather: no significant weather observed at this time

METAR text: SYCJ 180700Z 06004KT 9999 FEW014 24/23 Q1011 NOSIG
Conditions at: SYCJ (GEORGETOWN/TIMEH, GY) observed 0700 UTC 18 April 2019
Temperature: 24.0°C (75°F)
Dewpoint: 23.0°C (73°F) [RH = 94%]
Pressure (altimeter): 29.85 inches Hg (1011.0 mb)
Winds: from the ENE (60 degrees) at 5 MPH (4 knots; 2.1 m/s)
Visibility: 6 or more miles (10+ km)
Ceiling: at least 12,000 feet AGL
Clouds: few clouds at 1400 feet AGL
Weather: no significant weather observed at this time

Forecast for: SYCJ (GEORGETOWN/TIMEH, GY)
Text: TAF SYCJ 191725Z 1918/2018 05014KT 9999 BKN020
Forecast period: 1800 to 2200 UTC 19 April 2019
Forecast type: FROM: standard forecast or significant change
Winds: from the NE (50 degrees) at 16 MPH (14 knots; 7.2 m/s)
Visibility: 6 or more miles 10+ km)
Ceiling: 2000 feet AGL
Clouds: broken clouds at 2000 feet AGL
Weather: no significant weather forecast for this period
Text: BECMG 1922/2000 05006KT FEW01
Forecast period: 2200 UTC 19 April 2019 to 0500 UTC 20 April 2019
Forecast type: BECOMING: Conditions expected to become as follows by 0000 UTC 20 April 2019
Winds: from the NE (50 degrees) at 7 MPH (6 knots; 3.1 m/s)
Visibility: 6 or more miles 10+ km)
Ceiling: 2000 feet AGL
Clouds: broken clouds at 2000 feet AGL
Weather: no significant weather forecast for this period
Text: BECMG 2005/2007 VRB02KT 4000 BR SCT016 SCT038
Forecast period: 0500 to 1800 UTC 20 April 2019
Forecast type: BECOMING: Conditions expected to become as follows by 0700 UTC 20 April 2019
Winds: variable direction winds at 2 MPH (2 knots; 1.0 m/s)
Visibility: 2.49 miles (4.01 km)
Ceiling: at least 12,000 feet AGL
Clouds: scattered clouds at 1600 feet AGL
scattered clouds at 3800 feet AGL
Weather: BR  (mist)